createdAt,value
2022-09-23T00:00:01.293Z,133.1
2022-09-23T00:05:01.401Z,138.5
2022-09-23T00:15:01.416Z,138.7
2022-09-23T00:20:01.327Z,154.8
2022-09-23T00:25:01.429Z,157.9
2022-09-23T00:30:01.284Z,162.0
2022-09-23T00:35:01.352Z,171.6
2022-09-23T00:40:01.247Z,159.7
2022-09-23T00:45:01.290Z,143.2
2022-09-23T00:50:01.243Z,136.2
2022-09-23T00:55:01.400Z,126.4
2022-09-23T01:00:01.228Z,110.2
2022-09-23T01:05:01.371Z,113.9
2022-09-23T01:10:01.237Z,118.9
2022-09-23T01:15:01.343Z,135.9
2022-09-23T01:20:01.178Z,140.6
2022-09-23T01:25:02.302Z,140.2
2022-09-23T01:30:01.220Z,137.4
2022-09-23T01:35:01.267Z,137.7
2022-09-23T01:40:01.234Z,129.0
2022-09-23T01:45:01.359Z,133.4
2022-09-23T01:50:01.217Z,139.1
2022-09-23T01:55:01.315Z,151.9
2022-09-23T02:00:01.225Z,159.2
2022-09-23T02:05:01.377Z,161.0
2022-09-23T02:10:01.222Z,167.4
2022-09-23T02:15:01.322Z,171.4
2022-09-23T02:20:01.306Z,168.8
2022-09-23T02:25:01.270Z,165.2
2022-09-23T02:30:01.206Z,168.2
2022-09-23T02:50:01.336Z,155.4
2022-09-23T02:55:01.308Z,149.8
2022-09-23T03:00:01.235Z,148.7
2022-09-23T03:05:01.229Z,146.6
2022-09-23T03:10:01.180Z,147.4
2022-09-23T03:15:01.168Z,141.6
2022-09-23T03:30:01.695Z,155.6
2022-09-23T03:35:01.723Z,176.5
2022-09-23T03:40:01.571Z,181.3
2022-09-23T03:45:01.640Z,176.7
2022-09-23T03:50:01.596Z,179.0
2022-09-23T03:55:01.663Z,188.4
2022-09-23T04:00:01.620Z,179.8
2022-09-23T04:05:01.752Z,177.8
2022-09-23T04:10:01.648Z,178.7
2022-09-23T04:15:02.731Z,171.8
2022-09-23T04:20:01.655Z,163.3
2022-09-23T04:25:01.712Z,163.8
2022-09-23T04:30:01.635Z,160.4
2022-09-23T04:35:01.721Z,161.6
2022-09-23T04:40:01.586Z,163.0
2022-09-23T04:45:01.708Z,155.8
2022-09-23T04:50:06.602Z,153.9
2022-09-23T04:55:01.742Z,150.0
2022-09-23T05:00:01.589Z,141.2
2022-09-23T05:05:02.659Z,137.1
2022-09-23T05:10:01.591Z,142.2
2022-09-23T05:15:01.622Z,140.7
2022-09-23T05:20:01.565Z,140.0
2022-09-23T05:25:01.622Z,141.0
2022-09-23T05:30:01.777Z,134.9
2022-09-23T05:35:01.679Z,127.0
2022-09-23T05:40:01.552Z,121.7
2022-09-23T05:45:01.666Z,120.9
2022-09-23T05:50:01.578Z,121.4
2022-09-23T05:55:01.772Z,140.1
2022-09-23T06:00:01.539Z,141.3
2022-09-23T06:05:01.694Z,142.8
2022-09-23T06:10:01.639Z,139.4
2022-09-23T06:15:01.670Z,135.5
2022-09-23T06:20:01.544Z,115.9
2022-09-23T06:25:01.616Z,116.0
2022-09-23T06:30:01.620Z,113.0
2022-09-23T06:35:01.602Z,110.1
2022-09-23T06:40:01.543Z,112.1
2022-09-23T06:45:01.668Z,111.3
2022-09-23T06:50:01.568Z,107.0
2022-09-23T06:55:01.614Z,103.4
2022-09-23T07:00:01.548Z,100.0
2022-09-23T07:05:01.607Z,92.2
2022-09-23T07:10:06.399Z,86.6
2022-09-23T07:15:01.671Z,82.6
2022-09-23T07:20:01.544Z,78.8
2022-09-23T07:25:01.673Z,75.3
2022-09-23T07:30:01.729Z,72.5
2022-09-23T07:35:01.607Z,71.8
2022-09-23T07:40:01.566Z,70.6
2022-09-23T07:45:01.609Z,70.8
2022-09-23T07:50:01.554Z,71.2
2022-09-23T07:55:01.560Z,71.3
2022-09-23T08:00:01.475Z,72.0
2022-09-23T08:05:01.550Z,72.8
2022-09-23T08:10:01.514Z,73.2
2022-09-23T08:15:01.513Z,73.5
2022-09-23T08:25:01.509Z,74.6
2022-09-23T08:30:01.441Z,75.1
2022-09-23T08:35:01.586Z,77.2
2022-09-23T08:40:01.429Z,77.4
2022-09-23T08:45:01.541Z,76.8
2022-09-23T08:50:01.423Z,75.6
2022-09-23T09:10:01.551Z,64.6
2022-09-23T09:15:01.540Z,62.7
2022-09-23T09:20:01.371Z,72.5
2022-09-23T09:25:01.430Z,69.1
2022-09-23T09:30:01.504Z,67.0
2022-09-23T09:35:01.473Z,66.5
2022-09-23T09:50:01.015Z,62.8
2022-09-23T09:55:00.953Z,59.6
2022-09-23T10:10:15.886Z,60.8
2022-09-23T10:15:01.281Z,60.9
2022-09-23T10:20:01.212Z,61.1
2022-09-23T10:25:01.269Z,62.1
2022-09-23T10:30:01.231Z,62.8
2022-09-23T10:35:01.265Z,63.6
2022-09-23T10:40:01.209Z,64.5
2022-09-23T10:45:01.328Z,64.9
2022-09-23T11:00:00.948Z,62.2
2022-09-23T11:05:00.905Z,60.5
2022-09-23T11:20:01.560Z,64.0
2022-09-23T11:25:01.237Z,62.6
2022-09-23T11:30:01.165Z,63.4
2022-09-23T11:50:00.747Z,65.2
2022-09-23T11:55:02.435Z,59.7
2022-09-23T12:00:00.649Z,66.1
2022-09-23T12:05:00.827Z,64.5
2022-09-23T12:10:00.672Z,63.2
2022-09-23T12:15:00.769Z,63.0
2022-09-23T12:20:01.713Z,64.7
2022-09-23T12:40:01.329Z,58.0
2022-09-23T12:45:01.352Z,53.3
2022-09-23T13:00:02.880Z,45.4
2022-09-23T13:20:00.994Z,55.0
2022-09-23T13:25:00.886Z,58.0
2022-09-23T13:30:00.819Z,57.0
2022-09-23T13:35:00.891Z,57.7
2022-09-23T13:40:00.855Z,56.0
2022-09-23T13:45:01.010Z,58.3
2022-09-23T13:50:00.821Z,58.9
2022-09-23T13:55:00.933Z,61.4
2022-09-23T14:00:00.859Z,61.5
2022-09-23T14:20:01.618Z,66.8
2022-09-23T14:25:01.531Z,66.2
2022-09-23T14:30:01.464Z,65.6
2022-09-23T14:35:01.527Z,63.7
2022-09-23T14:40:01.524Z,66.3
2022-09-23T14:45:01.518Z,65.0
2022-09-23T14:50:01.447Z,64.4
2022-09-23T14:55:01.580Z,63.4
2022-09-23T15:00:01.470Z,64.2
2022-09-23T15:05:01.575Z,62.0
2022-09-23T15:10:01.449Z,61.9
2022-09-23T15:15:01.507Z,62.6
2022-09-23T15:20:01.454Z,62.3
2022-09-23T15:25:01.498Z,62.1
2022-09-23T15:30:01.434Z,61.6
2022-09-23T15:35:01.559Z,60.7
2022-09-23T15:40:01.453Z,59.2
2022-09-23T15:45:01.555Z,58.8
2022-09-23T15:50:01.425Z,58.0
2022-09-23T15:55:01.511Z,56.7
2022-09-23T16:00:01.437Z,57.4
2022-09-23T16:05:01.507Z,57.6
2022-09-23T16:10:01.408Z,59.1
2022-09-23T16:15:02.662Z,60.1
2022-09-23T16:20:01.582Z,60.0
2022-09-23T16:25:01.533Z,60.1
2022-09-23T16:30:02.575Z,59.6
2022-09-23T16:40:01.588Z,58.5
2022-09-23T16:45:01.456Z,59.1
2022-09-23T16:50:01.467Z,60.0
2022-09-23T16:55:01.453Z,60.8
2022-09-23T17:00:01.403Z,60.4
2022-09-23T17:05:01.508Z,61.6
2022-09-23T17:10:01.378Z,62.2
2022-09-23T17:15:01.500Z,61.3
2022-09-23T17:20:02.455Z,66.0
2022-09-23T17:25:06.477Z,65.2
2022-09-23T17:30:01.383Z,64.2
2022-09-23T17:35:01.516Z,63.2
2022-09-23T17:40:01.416Z,62.9
2022-09-23T17:45:01.533Z,57.3
2022-09-23T17:50:01.404Z,56.9
2022-09-23T17:55:01.463Z,56.7
2022-09-23T18:00:01.422Z,57.7
2022-09-23T18:05:01.501Z,57.6
2022-09-23T18:10:01.414Z,57.5
2022-09-23T18:15:01.614Z,58.5
2022-09-23T18:20:01.457Z,59.8
2022-09-23T18:25:09.367Z,60.3
2022-09-23T18:30:01.453Z,62.3
2022-09-23T18:35:01.589Z,65.4
2022-09-23T18:40:01.498Z,67.9
2022-09-23T18:45:01.629Z,70.4
2022-09-23T18:50:01.427Z,72.3
2022-09-23T18:55:01.609Z,74.0
2022-09-23T19:00:01.492Z,75.0
2022-09-23T19:05:01.574Z,74.7
2022-09-23T19:10:01.441Z,73.7
2022-09-23T19:15:01.581Z,76.1
2022-09-23T19:20:01.472Z,75.7
2022-09-23T19:25:01.740Z,75.2
2022-09-23T19:30:01.352Z,75.2
2022-09-23T19:35:01.495Z,75.3
2022-09-23T19:40:01.375Z,72.4
2022-09-23T19:45:01.475Z,72.2
2022-09-23T19:50:01.295Z,72.4
2022-09-23T19:55:01.467Z,73.5
2022-09-23T20:00:01.325Z,78.6
2022-09-23T20:05:01.376Z,80.4
2022-09-23T20:10:01.302Z,83.5
2022-09-23T20:15:01.346Z,86.0
2022-09-23T20:20:01.307Z,87.3
2022-09-23T20:25:01.541Z,86.8
2022-09-23T20:30:01.277Z,89.1
2022-09-23T20:35:01.444Z,91.9
2022-09-23T20:40:01.412Z,90.7
2022-09-23T20:45:01.377Z,96.5
2022-09-23T20:50:01.293Z,94.3
2022-09-23T20:55:06.572Z,93.7
2022-09-23T21:00:01.264Z,92.0
2022-09-23T21:05:01.328Z,93.7
2022-09-23T21:10:01.256Z,89.0
2022-09-23T21:15:01.344Z,90.7
2022-09-23T21:25:27.215Z,96.1
2022-09-23T21:30:01.200Z,100.5
2022-09-23T21:35:01.395Z,106.3
2022-09-23T21:40:01.260Z,113.4
2022-09-23T21:45:01.283Z,116.0
2022-09-23T21:50:01.210Z,117.6
2022-09-23T21:55:01.296Z,120.5
2022-09-23T22:00:01.209Z,122.6
2022-09-23T22:05:01.270Z,124.7
2022-09-23T22:10:01.238Z,129.0
2022-09-23T22:15:01.384Z,137.8
2022-09-23T22:20:01.207Z,141.8
2022-09-23T22:25:01.419Z,144.1
2022-09-23T22:30:01.233Z,146.2
2022-09-23T22:35:01.422Z,149.8
2022-09-23T22:40:01.226Z,150.3
2022-09-23T22:45:01.317Z,151.6
2022-09-23T22:50:01.243Z,153.9
2022-09-23T22:55:01.335Z,150.3
2022-09-23T23:00:01.286Z,144.7
2022-09-23T23:05:01.420Z,138.8
2022-09-23T23:10:01.225Z,134.6
2022-09-23T23:15:01.288Z,129.3
2022-09-23T23:20:01.296Z,129.5
2022-09-23T23:25:01.550Z,133.1
2022-09-23T23:30:01.200Z,135.6
2022-09-23T23:35:01.273Z,133.6
2022-09-23T23:40:01.186Z,130.0
2022-09-23T23:45:01.266Z,125.6
2022-09-23T23:50:01.180Z,114.4
2022-09-23T23:55:01.230Z,105.9
